This is the latest recevied weather packets stored in our database for station/object N5GMJ. If no packets are shown the sender has not sent any weather packets the latest 1 day(s).
| Time | Temp. | Humidity | Pressure | Rain* | Wind** | Luminosity | Snow |
|---|---|---|---|---|---|---|---|
| 1778009215 | 30° C | 57% | 1006.2 hPa | 0 mm | 1.34 m/s, 273° | - | - |
| 1778008912 | 30° C | 57% | 1006.2 hPa | 0 mm | 1.34 m/s, 297° | - | - |
| 1778008610 | 30° C | 56% | 1006.2 hPa | 0 mm | 2.24 m/s, 303° | - | - |
| 1778008308 | 30° C | 55% | 1006.1 hPa | 0 mm | 1.79 m/s, 212° | - | - |
| 1778008004 | 30.56° C | 57% | 1005.9 hPa | 0 mm | 1.34 m/s, 245° | - | - |
| 1778007703 | 30° C | 58% | 1005.9 hPa | 0 mm | 1.79 m/s, 248° | - | - |
| 1778007401 | 30° C | 58% | 1006.1 hPa | 0 mm | 2.68 m/s, 191° | - | - |
| 1778007097 | 30.56° C | 58% | 1006 hPa | 0 mm | 0.45 m/s, 151° | - | - |
| 1778006793 | 30.56° C | 58% | 1006.1 hPa | 0 mm | 0.89 m/s, 230° | - | - |
| 1778006491 | 30° C | 58% | 1005.8 hPa | 0 mm | 0 m/s | - | - |
| 1778006187 | 30° C | 58% | 1006 hPa | 0 mm | 1.34 m/s, 209° | - | - |
| 1778005885 | 29.44° C | 58% | 1006 hPa | 0 mm | 1.79 m/s, 289° | - | - |
| 1778005581 | 29.44° C | 60% | 1006 hPa | 0 mm | 0.45 m/s, 298° | - | - |
| 1778005278 | 30.56° C | 57% | 1006.1 hPa | 0 mm | 1.79 m/s, 157° | - | - |
| 1778004975 | 30° C | 58% | 1006.1 hPa | 0 mm | 0.45 m/s, 310° | - | - |
| 1778004672 | 30° C | 61% | 1006 hPa | 0 mm | 0 m/s | - | - |
| 1778004368 | 29.44° C | 62% | 1006.3 hPa | 0 mm | 0.89 m/s, 211° | - | - |
| 1778004066 | 30° C | 59% | 1006.2 hPa | 0 mm | 0.45 m/s, 154° | - | - |
| 1778003761 | 30° C | 61% | 1006.2 hPa | 0 mm | 1.34 m/s, 288° | - | - |
| 1778003458 | 29.44° C | 61% | 1006.4 hPa | 0 mm | 0.89 m/s, 160° | - | - |
| 1778003155 | 28.89° C | 61% | 1006.5 hPa | 0 mm | 0.89 m/s, 228° | - | - |
| 1778002850 | 28.89° C | 62% | 1006.2 hPa | 0 mm | 0.45 m/s, 198° | - | - |
| 1778002547 | 29.44° C | 59% | 1006.1 hPa | 0 mm | 1.79 m/s, 268° | - | - |
| 1778002244 | 28.33° C | 61% | 1006 hPa | 0 mm | 1.79 m/s, 224° | - | - |
| 1778001942 | 28.89° C | 62% | 1006.1 hPa | 0 mm | 0.45 m/s, 109° | - | - |
* Rain latest hour (hover to see other rain measurements)
** Current wind speed in m/s (hover to see current wind gust speed)